Evansville, IN (47712)

11:59 AM CDT on July 28, 2016 (GMT -0500)
Pigeon Township | | Change Station

Elev 390 ft 37.99 °N, 87.56 °W | Updated 8 seconds ago

Overcast
Overcast
79.8 °F
Feels Like 85 °F
N
4.0
Wind Variable Wind from South
Gusts 10.0 mph

Today
High -- | Low -- °F
--% Chance of Precip.
Yesterday
High -- | Low -- °F
Precip. -- in
Pressure 29.89 in
Visibility 10.0 miles
Clouds Mostly Cloudy 1700 ft
Overcast 2400 ft
Heat Index 85 °F
Dew Point 75 °F
Humidity 86%
Rainfall 0.00 in
Snow Depth Not available.
5:50 AM 8:02 PM
Waning Crescent, 30% visible
METAR KEVV 281654Z 20005KT 10SM BKN017 OVC024 26/23 A2990 RMK AO2 SLP122 T02560228
Pressure 29.89 in
Visibility 10.0 miles
Clouds Mostly Cloudy 1700 ft
Overcast 2400 ft
Heat Index 85 °F
Dew Point 75 °F
Humidity 86%
Rainfall 0.00 in
Snow Depth Not available.
5:50 AM 8:02 PM
Waning Crescent, 30% visible
METAR KEVV 281654Z 20005KT 10SM BKN017 OVC024 26/23 A2990 RMK AO2 SLP122 T02560228

10-Day Weather Forecast

Almanac

Astronomy

Jul. 28, 2016 Rise Set
Actual Time
Civil Twilight
Nautical Twilight
Astronomical Twilight
Moon
Length of Visible Light
Length of Day
Tomorrow will be .
, % of the Moon is Illuminated

Today's Extremes

State Highs State Lows

Community

WunderPhotos

Upload Photos

1,928,153 photos uploaded!

WunderBlog® & News

Nearby

Air Quality

  Air Quality AQ Index Pollutant
Not available.

Snow Depth

Station Depth Elevation

Earthquake Activity

City Distance Mag. Time & Date
Minimum magnitude displayed is 2.5.

Coastal Water Temperatures

Place Temperature

Stations

Nearby Weather Stations

Station Location Temp. Windchill Dew Point Humidity Wind Precip. Elev Updated Type
                   

Watches & Warnings

There are currently no watches in effect.